UPS5442 MROC-MGGT
Flight info
| Callsign | UPS5442 |
|---|---|
| Flight time | N/A |
| Altitude | 32000 |
| Route | NANJO4U ULAPO DCT TUKOR DCT KAPAN KAPAN2C |
| Aircraft | B763/H-SDE3FGHIM3RWXY/LB1 |
Departure
| Time | 2026-04-29 23:46 |
|---|---|
| Airport | Juan Santamaría International Airport (MROC) |
Arrival
| Time | N/A |
|---|---|
| Airport | La Aurora International Airport (MGGT) |
| Time | Latitude | Longitude | Altitude | Speed | Heading |
|---|---|---|---|---|---|
| 2026-04-29 23:10 | 9.99504 | -84.21369 | 2981 ft | 0 kts | 340° |
| 2026-04-29 23:28 | 9.99495 | -84.21366 | 2981 ft | 2 kts | 339° |
| 2026-04-29 23:28 | 9.99480 | -84.21361 | 2981 ft | 2 kts | 339° |
| 2026-04-29 23:28 | 9.99466 | -84.21358 | 2981 ft | 2 kts | 8° |
| 2026-04-29 23:29 | 9.99453 | -84.21363 | 2981 ft | 2 kts | 33° |
| 2026-04-29 23:29 | 9.99442 | -84.21373 | 2980 ft | 2 kts | 58° |
| 2026-04-29 23:29 | 9.99438 | -84.21381 | 2979 ft | 0 kts | 69° |
| 2026-04-29 23:33 | 9.99440 | -84.21377 | 2980 ft | 0 kts | 70° |
| 2026-04-29 23:34 | 9.99443 | -84.21368 | 2980 ft | 2 kts | 69° |
| 2026-04-29 23:34 | 9.99451 | -84.21348 | 2982 ft | 3 kts | 69° |
| 2026-04-29 23:34 | 9.99466 | -84.21310 | 2985 ft | 6 kts | 69° |
| 2026-04-29 23:35 | 9.99479 | -84.21276 | 2987 ft | 4 kts | 69° |
| 2026-04-29 23:35 | 9.99481 | -84.21241 | 2989 ft | 4 kts | 107° |
| 2026-04-29 23:35 | 9.99467 | -84.21222 | 2990 ft | 2 kts | 142° |
| 2026-04-29 23:35 | 9.99455 | -84.21216 | 2990 ft | 0 kts | 154° |
| 2026-04-29 23:36 | 9.99450 | -84.21214 | 2990 ft | 3 kts | 154° |
| 2026-04-29 23:36 | 9.99414 | -84.21195 | 2992 ft | 7 kts | 149° |
| 2026-04-29 23:37 | 9.99392 | -84.21169 | 2993 ft | 3 kts | 108° |
| 2026-04-29 23:37 | 9.99400 | -84.21123 | 2995 ft | 10 kts | 71° |
| 2026-04-29 23:37 | 9.99422 | -84.21057 | 2998 ft | 7 kts | 69° |
| 2026-04-29 23:37 | 9.99435 | -84.21024 | 3000 ft | 4 kts | 68° |
| 2026-04-29 23:38 | 9.99449 | -84.20988 | 3002 ft | 7 kts | 69° |
| 2026-04-29 23:38 | 9.99468 | -84.20937 | 3004 ft | 6 kts | 69° |
| 2026-04-29 23:38 | 9.99480 | -84.20906 | 3006 ft | 3 kts | 69° |
| 2026-04-29 23:38 | 9.99487 | -84.20885 | 3007 ft | 3 kts | 69° |
| 2026-04-29 23:39 | 9.99508 | -84.20831 | 3010 ft | 12 kts | 70° |
| 2026-04-29 23:39 | 9.99547 | -84.20727 | 3015 ft | 18 kts | 69° |
| 2026-04-29 23:39 | 9.99588 | -84.20618 | 3021 ft | 14 kts | 69° |
| 2026-04-29 23:39 | 9.99616 | -84.20544 | 3025 ft | 8 kts | 69° |
| 2026-04-29 23:40 | 9.99634 | -84.20496 | 3028 ft | 6 kts | 69° |
| 2026-04-29 23:40 | 9.99645 | -84.20467 | 3029 ft | 2 kts | 69° |
| 2026-04-29 23:40 | 9.99656 | -84.20438 | 3031 ft | 7 kts | 69° |
| 2026-04-29 23:40 | 9.99682 | -84.20368 | 3034 ft | 11 kts | 70° |
| 2026-04-29 23:41 | 9.99702 | -84.20316 | 3038 ft | 5 kts | 69° |
| 2026-04-29 23:41 | 9.99709 | -84.20297 | 3039 ft | 3 kts | 69° |
| 2026-04-29 23:41 | 9.99721 | -84.20264 | 3040 ft | 5 kts | 69° |
| 2026-04-29 23:41 | 9.99733 | -84.20234 | 3042 ft | 3 kts | 70° |
| 2026-04-29 23:42 | 9.99738 | -84.20219 | 3043 ft | 1 kts | 70° |
| 2026-04-29 23:42 | 9.99742 | -84.20208 | 3043 ft | 3 kts | 69° |
| 2026-04-29 23:42 | 9.99754 | -84.20177 | 3045 ft | 4 kts | 69° |
| 2026-04-29 23:42 | 9.99763 | -84.20153 | 3046 ft | 5 kts | 69° |
| 2026-04-29 23:43 | 9.99783 | -84.20101 | 3048 ft | 8 kts | 69° |
| 2026-04-29 23:43 | 9.99786 | -84.20091 | 3048 ft | 0 kts | 69° |
| 2026-04-29 23:43 | 9.99789 | -84.20084 | 3048 ft | 3 kts | 69° |
| 2026-04-29 23:43 | 9.99799 | -84.20039 | 3050 ft | 7 kts | 96° |
| 2026-04-29 23:44 | 9.99755 | -84.20000 | 3049 ft | 10 kts | 169° |
| 2026-04-29 23:44 | 9.99710 | -84.20030 | 3047 ft | 0 kts | 249° |
| 2026-04-29 23:45 | 9.99681 | -84.20107 | 3044 ft | 38 kts | 249° |
| 2026-04-29 23:46 | 9.99492 | -84.20615 | 3018 ft | 112 kts | 249° |
| 2026-04-29 23:46 | 9.99133 | -84.21570 | 2991 ft | 172 kts | 249° |
| 2026-04-29 23:46 | 9.98664 | -84.22791 | 3306 ft | 201 kts | 248° |
| 2026-04-29 23:46 | 9.98093 | -84.24216 | 3642 ft | 234 kts | 248° |
| 2026-04-29 23:47 | 9.97464 | -84.25798 | 4260 ft | 245 kts | 249° |
| 2026-04-29 23:47 | 9.97049 | -84.27539 | 4583 ft | 269 kts | 272° |
| 2026-04-29 23:47 | 9.97538 | -84.29388 | 5120 ft | 280 kts | 304° |
| 2026-04-29 23:47 | 9.98880 | -84.30780 | 5986 ft | 278 kts | 332° |
| 2026-04-29 23:48 | 10.00681 | -84.31478 | 6780 ft | 279 kts | 346° |
| 2026-04-29 23:48 | 10.02528 | -84.32101 | 7584 ft | 284 kts | 341° |
| 2026-04-29 23:48 | 10.04374 | -84.32812 | 8387 ft | 287 kts | 341° |
| 2026-04-29 23:48 | 10.06249 | -84.33566 | 9174 ft | 292 kts | 340° |
| 2026-04-29 23:49 | 10.08126 | -84.34341 | 9945 ft | 296 kts | 339° |
| 2026-04-29 23:49 | 10.10071 | -84.35154 | 10536 ft | 308 kts | 339° |
| 2026-04-29 23:49 | 10.12043 | -84.36247 | 10584 ft | 342 kts | 323° |
| 2026-04-29 23:49 | 10.13930 | -84.37882 | 10709 ft | 372 kts | 321° |
| 2026-04-29 23:50 | 10.16017 | -84.39594 | 11299 ft | 386 kts | 322° |
| 2026-04-29 23:50 | 10.18083 | -84.41285 | 12225 ft | 389 kts | 322° |
| 2026-04-29 23:50 | 10.22457 | -84.44790 | 13047 ft | 410 kts | 322° |
| 2026-04-29 23:51 | 10.24665 | -84.46552 | 13035 ft | 398 kts | 322° |
| 2026-04-29 23:51 | 10.26834 | -84.48282 | 13013 ft | 391 kts | 322° |
| 2026-04-29 23:51 | 10.28974 | -84.49988 | 13008 ft | 392 kts | 322° |
| 2026-04-29 23:51 | 10.31147 | -84.51718 | 13018 ft | 396 kts | 322° |
| 2026-04-29 23:52 | 10.33304 | -84.53438 | 13004 ft | 396 kts | 322° |
| 2026-04-29 23:52 | 10.35490 | -84.55177 | 13050 ft | 398 kts | 322° |
| 2026-04-29 23:52 | 10.37670 | -84.56913 | 13607 ft | 403 kts | 322° |
| 2026-04-29 23:52 | 10.39869 | -84.58665 | 14500 ft | 404 kts | 322° |
| 2026-04-29 23:53 | 10.42088 | -84.60432 | 15202 ft | 410 kts | 322° |
| 2026-04-29 23:53 | 10.44361 | -84.62243 | 15917 ft | 415 kts | 322° |
| 2026-04-29 23:53 | 10.46644 | -84.64062 | 16617 ft | 419 kts | 321° |
| 2026-04-29 23:53 | 10.48946 | -84.65897 | 17282 ft | 423 kts | 321° |
| 2026-04-29 23:54 | 10.51282 | -84.67760 | 17942 ft | 427 kts | 321° |
| 2026-04-29 23:54 | 10.53613 | -84.69617 | 18638 ft | 430 kts | 321° |
| 2026-04-29 23:54 | 10.55979 | -84.71504 | 19264 ft | 434 kts | 321° |
| 2026-04-29 23:54 | 10.58372 | -84.73414 | 19889 ft | 437 kts | 321° |
| 2026-04-29 23:55 | 10.60745 | -84.75307 | 20475 ft | 440 kts | 320° |
| 2026-04-29 23:55 | 10.63173 | -84.77243 | 21046 ft | 443 kts | 320° |
| 2026-04-29 23:55 | 10.65585 | -84.79169 | 21596 ft | 446 kts | 320° |
| 2026-04-29 23:55 | 10.68016 | -84.81176 | 22125 ft | 448 kts | 315° |
| 2026-04-29 23:56 | 10.70266 | -84.83383 | 22626 ft | 451 kts | 314° |
| 2026-04-29 23:56 | 10.72551 | -84.85601 | 23085 ft | 455 kts | 314° |
| 2026-04-29 23:56 | 10.74812 | -84.87817 | 23569 ft | 459 kts | 313° |
| 2026-04-29 23:56 | 10.77143 | -84.90097 | 24042 ft | 462 kts | 313° |
| 2026-04-29 23:57 | 10.79455 | -84.92361 | 24517 ft | 466 kts | 313° |
| 2026-04-29 23:57 | 10.81806 | -84.94666 | 24957 ft | 470 kts | 313° |
| 2026-04-29 23:57 | 10.84154 | -84.96969 | 25445 ft | 472 kts | 313° |
| 2026-04-29 23:57 | 10.86537 | -84.99306 | 25865 ft | 476 kts | 313° |
| 2026-04-29 23:58 | 10.88927 | -85.01652 | 26330 ft | 479 kts | 313° |
| 2026-04-29 23:58 | 10.91318 | -85.03998 | 26753 ft | 482 kts | 313° |
| 2026-04-29 23:58 | 10.93743 | -85.06378 | 27165 ft | 486 kts | 312° |
| 2026-04-29 23:58 | 10.96194 | -85.08785 | 27594 ft | 489 kts | 312° |
| 2026-04-29 23:59 | 10.98634 | -85.11180 | 28073 ft | 490 kts | 312° |
| 2026-04-29 23:59 | 11.01092 | -85.13595 | 28637 ft | 489 kts | 311° |
| 2026-04-29 23:59 | 11.03519 | -85.15989 | 29267 ft | 485 kts | 310° |
| 2026-04-29 23:59 | 11.05699 | -85.18555 | 29771 ft | 479 kts | 302° |
| 2026-04-30 00:00 | 11.07648 | -85.21320 | 30334 ft | 477 kts | 302° |
| 2026-04-30 00:00 | 11.09573 | -85.24030 | 31024 ft | 471 kts | 302° |
| 2026-04-30 00:00 | 11.11500 | -85.26771 | 31515 ft | 471 kts | 302° |
| 2026-04-30 00:00 | 11.13379 | -85.29449 | 31843 ft | 469 kts | 301° |
| 2026-04-30 00:01 | 11.15289 | -85.32174 | 31813 ft | 466 kts | 302° |
| 2026-04-30 00:01 | 11.19042 | -85.37537 | 31823 ft | 465 kts | 301° |
| 2026-04-30 00:02 | 11.22831 | -85.42957 | 31812 ft | 473 kts | 302° |
| 2026-04-30 00:02 | 11.26662 | -85.48438 | 31814 ft | 475 kts | 301° |
| 2026-04-30 00:03 | 11.30491 | -85.53918 | 31825 ft | 471 kts | 301° |
| 2026-04-30 00:03 | 11.34293 | -85.59366 | 31837 ft | 472 kts | 301° |
| 2026-04-30 00:04 | 11.37992 | -85.64669 | 31829 ft | 473 kts | 301° |
| 2026-04-30 00:04 | 11.41812 | -85.70146 | 31839 ft | 472 kts | 301° |
| 2026-04-30 00:05 | 11.45614 | -85.75603 | 31830 ft | 472 kts | 301° |
| 2026-04-30 00:05 | 11.49403 | -85.81042 | 31822 ft | 472 kts | 301° |
| 2026-04-30 00:06 | 11.53201 | -85.86498 | 31833 ft | 472 kts | 301° |
| 2026-04-30 00:06 | 11.57000 | -85.91957 | 31827 ft | 472 kts | 301° |
| 2026-04-30 00:07 | 11.60784 | -85.97399 | 31817 ft | 472 kts | 301° |
| 2026-04-30 00:07 | 11.64589 | -86.02875 | 31808 ft | 472 kts | 301° |
| 2026-04-30 00:08 | 11.68397 | -86.08355 | 31802 ft | 472 kts | 301° |
| 2026-04-30 00:08 | 11.72178 | -86.13801 | 31809 ft | 472 kts | 301° |
| 2026-04-30 00:09 | 11.75981 | -86.19282 | 31816 ft | 472 kts | 301° |
| 2026-04-30 00:09 | 11.79763 | -86.24734 | 31831 ft | 472 kts | 301° |
| 2026-04-30 00:10 | 11.83549 | -86.30197 | 31836 ft | 472 kts | 301° |
| 2026-04-30 00:10 | 11.87355 | -86.35689 | 31832 ft | 472 kts | 301° |
| 2026-04-30 00:11 | 11.91151 | -86.41173 | 31828 ft | 471 kts | 301° |
| 2026-04-30 00:11 | 11.94945 | -86.46656 | 31818 ft | 471 kts | 301° |
| 2026-04-30 00:12 | 11.98750 | -86.52158 | 31806 ft | 472 kts | 301° |
| 2026-04-30 00:12 | 12.02547 | -86.57652 | 31799 ft | 471 kts | 301° |
| 2026-04-30 00:13 | 12.06323 | -86.63118 | 31796 ft | 470 kts | 301° |
| 2026-04-30 00:13 | 12.10079 | -86.68556 | 31804 ft | 470 kts | 301° |
| 2026-04-30 00:14 | 12.13870 | -86.74051 | 31791 ft | 471 kts | 301° |
| 2026-04-30 00:14 | 12.17633 | -86.79507 | 31787 ft | 470 kts | 301° |
| 2026-04-30 00:15 | 12.21404 | -86.84978 | 31784 ft | 470 kts | 301° |
| 2026-04-30 00:15 | 12.25163 | -86.90436 | 31785 ft | 470 kts | 301° |
| 2026-04-30 00:16 | 12.28893 | -86.95853 | 31782 ft | 468 kts | 301° |
| 2026-04-30 00:16 | 12.32647 | -87.01308 | 31785 ft | 467 kts | 301° |
| 2026-04-30 00:17 | 12.36391 | -87.06754 | 31784 ft | 468 kts | 301° |
| 2026-04-30 00:17 | 12.40143 | -87.12213 | 31785 ft | 467 kts | 301° |
| 2026-04-30 00:18 | 12.43868 | -87.17635 | 31788 ft | 468 kts | 301° |
| 2026-04-30 00:18 | 12.47618 | -87.23099 | 31791 ft | 469 kts | 301° |
| 2026-04-30 00:19 | 12.51350 | -87.28537 | 31793 ft | 467 kts | 301° |
| 2026-04-30 00:19 | 12.55087 | -87.33988 | 31795 ft | 467 kts | 302° |
| 2026-04-30 00:20 | 12.58835 | -87.39457 | 31795 ft | 467 kts | 302° |
| 2026-04-30 00:20 | 12.62546 | -87.44875 | 31792 ft | 467 kts | 302° |
| 2026-04-30 00:21 | 12.66293 | -87.50350 | 31791 ft | 467 kts | 302° |
| 2026-04-30 00:21 | 12.70008 | -87.55779 | 31789 ft | 466 kts | 302° |
| 2026-04-30 00:22 | 12.73723 | -87.61214 | 31788 ft | 466 kts | 302° |
| 2026-04-30 00:22 | 12.77467 | -87.66694 | 31800 ft | 467 kts | 302° |
| 2026-04-30 00:23 | 12.81175 | -87.72123 | 31797 ft | 467 kts | 302° |
| 2026-04-30 00:23 | 12.84908 | -87.77593 | 31799 ft | 467 kts | 302° |
| 2026-04-30 00:24 | 12.88588 | -87.83065 | 31800 ft | 466 kts | 298° |
| 2026-04-30 00:24 | 12.91843 | -87.88766 | 31801 ft | 465 kts | 297° |
| 2026-04-30 00:25 | 12.95138 | -87.94485 | 31799 ft | 466 kts | 298° |
| 2026-04-30 00:25 | 12.98444 | -88.00204 | 31802 ft | 466 kts | 298° |
| 2026-04-30 00:26 | 13.01736 | -88.05894 | 31806 ft | 465 kts | 298° |
| 2026-04-30 00:26 | 13.05038 | -88.11603 | 31813 ft | 467 kts | 298° |
| 2026-04-30 00:27 | 13.08347 | -88.17327 | 31838 ft | 468 kts | 298° |
| 2026-04-30 00:27 | 13.11677 | -88.23090 | 31853 ft | 469 kts | 298° |
| 2026-04-30 00:28 | 13.14990 | -88.28828 | 31867 ft | 468 kts | 299° |
| 2026-04-30 00:28 | 13.18333 | -88.34622 | 31867 ft | 468 kts | 299° |
| 2026-04-30 00:29 | 13.21668 | -88.40407 | 31856 ft | 469 kts | 299° |
| 2026-04-30 00:29 | 13.24983 | -88.46159 | 31852 ft | 470 kts | 299° |
| 2026-04-30 00:30 | 13.28327 | -88.51966 | 31846 ft | 472 kts | 299° |
| 2026-04-30 00:30 | 13.31662 | -88.57761 | 31868 ft | 470 kts | 300° |
| 2026-04-30 00:31 | 13.35020 | -88.63600 | 31873 ft | 470 kts | 300° |
| 2026-04-30 00:31 | 13.38360 | -88.69412 | 31868 ft | 472 kts | 300° |
| 2026-04-30 00:32 | 13.41684 | -88.75199 | 31844 ft | 467 kts | 300° |
| 2026-04-30 00:32 | 13.44956 | -88.80900 | 31838 ft | 462 kts | 300° |
| 2026-04-30 00:33 | 13.48228 | -88.86607 | 31847 ft | 463 kts | 300° |
| 2026-04-30 00:33 | 13.51518 | -88.92346 | 31850 ft | 466 kts | 300° |
| 2026-04-30 00:34 | 13.54798 | -88.98071 | 31638 ft | 471 kts | 300° |
| 2026-04-30 00:34 | 13.56477 | -89.01004 | 31171 ft | 473 kts | 300° |
| 2026-04-30 00:34 | 13.58134 | -89.03902 | 30711 ft | 470 kts | 300° |
| 2026-04-30 00:34 | 13.59792 | -89.06799 | 30235 ft | 467 kts | 300° |
| 2026-04-30 00:35 | 13.61423 | -89.09650 | 29781 ft | 464 kts | 301° |
| 2026-04-30 00:35 | 13.63051 | -89.12499 | 29324 ft | 464 kts | 301° |
| 2026-04-30 00:35 | 13.64684 | -89.15357 | 28873 ft | 466 kts | 301° |
| 2026-04-30 00:35 | 13.66328 | -89.18236 | 28407 ft | 468 kts | 301° |
| 2026-04-30 00:36 | 13.67982 | -89.21133 | 27932 ft | 467 kts | 301° |
| 2026-04-30 00:36 | 13.69602 | -89.23968 | 27474 ft | 463 kts | 302° |
| 2026-04-30 00:36 | 13.71239 | -89.26840 | 27007 ft | 459 kts | 302° |
| 2026-04-30 00:36 | 13.72824 | -89.29619 | 26556 ft | 455 kts | 302° |
| 2026-04-30 00:37 | 13.74434 | -89.32443 | 26100 ft | 453 kts | 303° |
| 2026-04-30 00:37 | 13.76027 | -89.35237 | 25651 ft | 452 kts | 303° |
| 2026-04-30 00:37 | 13.77602 | -89.37998 | 25207 ft | 451 kts | 303° |
| 2026-04-30 00:37 | 13.79195 | -89.40795 | 24751 ft | 450 kts | 303° |
| 2026-04-30 00:38 | 13.80769 | -89.43559 | 24298 ft | 449 kts | 304° |
| 2026-04-30 00:38 | 13.82330 | -89.46301 | 23851 ft | 447 kts | 304° |
| 2026-04-30 00:38 | 13.83901 | -89.49061 | 23398 ft | 445 kts | 304° |
| 2026-04-30 00:38 | 13.85464 | -89.51810 | 22945 ft | 442 kts | 305° |
| 2026-04-30 00:39 | 13.87001 | -89.54511 | 22505 ft | 439 kts | 305° |
| 2026-04-30 00:39 | 13.88549 | -89.57233 | 22065 ft | 437 kts | 305° |
| 2026-04-30 00:39 | 13.90060 | -89.59890 | 21637 ft | 433 kts | 305° |
| 2026-04-30 00:39 | 13.91574 | -89.62554 | 21205 ft | 430 kts | 305° |
| 2026-04-30 00:40 | 13.93082 | -89.65208 | 20782 ft | 429 kts | 304° |
| 2026-04-30 00:40 | 13.94589 | -89.67859 | 20346 ft | 427 kts | 304° |
| 2026-04-30 00:40 | 13.96081 | -89.70489 | 19924 ft | 422 kts | 304° |
| 2026-04-30 00:40 | 13.97557 | -89.73089 | 19508 ft | 420 kts | 304° |
| 2026-04-30 00:41 | 13.99026 | -89.75679 | 19101 ft | 417 kts | 304° |
| 2026-04-30 00:41 | 14.00486 | -89.78252 | 18692 ft | 416 kts | 304° |
| 2026-04-30 00:41 | 14.01939 | -89.80814 | 18264 ft | 412 kts | 304° |
| 2026-04-30 00:41 | 14.03371 | -89.83341 | 17816 ft | 413 kts | 304° |
| 2026-04-30 00:42 | 14.04807 | -89.85877 | 17405 ft | 406 kts | 304° |
| 2026-04-30 00:42 | 14.06280 | -89.88355 | 17026 ft | 404 kts | 306° |
| 2026-04-30 00:42 | 14.07797 | -89.90808 | 16655 ft | 404 kts | 306° |
| 2026-04-30 00:42 | 14.09282 | -89.93223 | 16263 ft | 400 kts | 306° |
| 2026-04-30 00:43 | 14.10759 | -89.95629 | 15884 ft | 396 kts | 306° |
| 2026-04-30 00:43 | 14.12229 | -89.98020 | 15502 ft | 396 kts | 306° |
| 2026-04-30 00:43 | 14.13700 | -90.00420 | 15106 ft | 393 kts | 306° |
| 2026-04-30 00:43 | 14.15146 | -90.02773 | 14719 ft | 391 kts | 306° |
| 2026-04-30 00:44 | 14.16605 | -90.05154 | 14315 ft | 389 kts | 306° |
| 2026-04-30 00:44 | 14.18035 | -90.07484 | 13926 ft | 389 kts | 306° |
| 2026-04-30 00:44 | 14.19463 | -90.09816 | 13530 ft | 385 kts | 306° |
| 2026-04-30 00:44 | 14.20890 | -90.12145 | 13135 ft | 383 kts | 306° |
| 2026-04-30 00:45 | 14.22234 | -90.14510 | 12766 ft | 380 kts | 303° |
| 2026-04-30 00:45 | 14.23563 | -90.16867 | 12419 ft | 379 kts | 303° |
| 2026-04-30 00:45 | 14.24864 | -90.19184 | 12052 ft | 375 kts | 303° |
| 2026-04-30 00:45 | 14.26174 | -90.21507 | 11674 ft | 373 kts | 303° |
| 2026-04-30 00:46 | 14.27466 | -90.23802 | 11328 ft | 371 kts | 303° |
| 2026-04-30 00:46 | 14.28767 | -90.26113 | 10977 ft | 369 kts | 303° |
| 2026-04-30 00:46 | 14.30034 | -90.28364 | 10581 ft | 365 kts | 303° |
| 2026-04-30 00:46 | 14.31304 | -90.30623 | 10224 ft | 361 kts | 302° |
| 2026-04-30 00:47 | 14.32545 | -90.32830 | 9980 ft | 348 kts | 308° |
| 2026-04-30 00:47 | 14.34066 | -90.34675 | 9995 ft | 326 kts | 319° |
| 2026-04-30 00:47 | 14.35744 | -90.36153 | 9969 ft | 305 kts | 327° |
| 2026-04-30 00:47 | 14.37452 | -90.37259 | 10006 ft | 279 kts | 335° |
| 2026-04-30 00:48 | 14.39160 | -90.38071 | 10007 ft | 256 kts | 342° |
| 2026-04-30 00:48 | 14.40795 | -90.38627 | 10061 ft | 242 kts | 348° |
| 2026-04-30 00:48 | 14.42430 | -90.38993 | 10055 ft | 238 kts | 354° |
| 2026-04-30 00:48 | 14.44085 | -90.39186 | 10066 ft | 239 kts | 359° |
| 2026-04-30 00:49 | 14.45755 | -90.39208 | 10081 ft | 241 kts | 6° |
| 2026-04-30 00:49 | 14.47424 | -90.39010 | 10062 ft | 242 kts | 9° |
| 2026-04-30 00:49 | 14.49129 | -90.38809 | 9952 ft | 244 kts | 7° |
| 2026-04-30 00:49 | 14.50780 | -90.38654 | 9898 ft | 231 kts | 7° |
| 2026-04-30 00:50 | 14.52352 | -90.38519 | 9745 ft | 227 kts | 7° |
| 2026-04-30 00:50 | 14.53923 | -90.38393 | 9677 ft | 220 kts | 6° |
| 2026-04-30 00:50 | 14.55436 | -90.38276 | 9642 ft | 215 kts | 6° |
| 2026-04-30 00:50 | 14.56938 | -90.38164 | 9449 ft | 215 kts | 5° |
| 2026-04-30 00:51 | 14.58418 | -90.38055 | 9259 ft | 210 kts | 5° |
| 2026-04-30 00:51 | 14.59872 | -90.37949 | 8722 ft | 214 kts | 5° |
| 2026-04-30 00:51 | 14.61372 | -90.37840 | 8116 ft | 215 kts | 5° |
| 2026-04-30 00:51 | 14.62788 | -90.37739 | 8022 ft | 195 kts | 5° |
| 2026-04-30 00:52 | 14.64159 | -90.37640 | 8066 ft | 202 kts | 5° |
| 2026-04-30 00:52 | 14.65613 | -90.37535 | 8060 ft | 211 kts | 5° |
| 2026-04-30 00:52 | 14.67066 | -90.37429 | 8029 ft | 207 kts | 6° |
| 2026-04-30 00:52 | 14.68505 | -90.37339 | 8032 ft | 205 kts | 358° |
| 2026-04-30 00:53 | 14.69900 | -90.37601 | 8083 ft | 205 kts | 342° |
| 2026-04-30 00:53 | 14.71216 | -90.38258 | 8043 ft | 209 kts | 327° |
| 2026-04-30 00:53 | 14.72311 | -90.39223 | 8037 ft | 208 kts | 313° |
| 2026-04-30 00:53 | 14.73146 | -90.40436 | 8037 ft | 208 kts | 298° |
| 2026-04-30 00:54 | 14.73682 | -90.41843 | 8036 ft | 209 kts | 285° |
| 2026-04-30 00:54 | 14.73874 | -90.43313 | 8047 ft | 210 kts | 271° |
| 2026-04-30 00:54 | 14.73726 | -90.44797 | 8024 ft | 204 kts | 257° |
| 2026-04-30 00:54 | 14.73258 | -90.46155 | 8029 ft | 198 kts | 243° |
| 2026-04-30 00:55 | 14.72519 | -90.47355 | 8056 ft | 200 kts | 231° |
| 2026-04-30 00:55 | 14.71523 | -90.48376 | 8048 ft | 201 kts | 217° |
| 2026-04-30 00:55 | 14.69083 | -90.49586 | 7648 ft | 191 kts | 194° |
| 2026-04-30 00:56 | 14.67786 | -90.49905 | 7182 ft | 192 kts | 192° |
| 2026-04-30 00:56 | 14.66463 | -90.50225 | 6674 ft | 199 kts | 195° |
| 2026-04-30 00:56 | 14.65155 | -90.50604 | 6350 ft | 194 kts | 195° |
| 2026-04-30 00:56 | 14.63861 | -90.50970 | 6095 ft | 186 kts | 196° |
| 2026-04-30 00:57 | 14.62617 | -90.51297 | 5799 ft | 180 kts | 194° |
| 2026-04-30 00:57 | 14.61455 | -90.51681 | 5440 ft | 173 kts | 201° |
| 2026-04-30 00:57 | 14.60322 | -90.52107 | 5100 ft | 172 kts | 193° |
| 2026-04-30 00:57 | 14.59189 | -90.52467 | 5024 ft | 171 kts | 199° |
| 2026-04-30 00:58 | 14.58036 | -90.52843 | 5460 ft | 170 kts | 197° |
| 2026-04-30 00:58 | 14.56899 | -90.53164 | 5916 ft | 176 kts | 194° |
| 2026-04-30 00:58 | 14.55764 | -90.53420 | 6643 ft | 165 kts | 191° |
| 2026-04-30 00:58 | 14.54502 | -90.53642 | 6708 ft | 195 kts | 189° |
| 2026-04-30 00:59 | 14.53154 | -90.53884 | 6801 ft | 204 kts | 191° |
| 2026-04-30 00:59 | 14.51699 | -90.54170 | 6373 ft | 219 kts | 190° |
| 2026-04-30 00:59 | 14.50196 | -90.54444 | 6315 ft | 216 kts | 191° |
| 2026-04-30 00:59 | 14.48648 | -90.54785 | 6124 ft | 235 kts | 193° |
| 2026-04-30 01:00 | 14.47059 | -90.54910 | 6287 ft | 227 kts | 173° |
| 2026-04-30 01:00 | 14.45535 | -90.54382 | 6254 ft | 238 kts | 144° |
| 2026-04-30 01:00 | 14.44390 | -90.53182 | 6466 ft | 231 kts | 124° |
| 2026-04-30 01:00 | 14.43632 | -90.51709 | 6653 ft | 235 kts | 116° |
| 2026-04-30 01:01 | 14.42925 | -90.50164 | 6894 ft | 242 kts | 116° |
| 2026-04-30 01:01 | 14.42192 | -90.48568 | 6852 ft | 249 kts | 116° |
| 2026-04-30 01:01 | 14.41452 | -90.46935 | 6582 ft | 250 kts | 116° |
| 2026-04-30 01:01 | 14.40711 | -90.45319 | 6328 ft | 247 kts | 112° |
| 2026-04-30 01:02 | 14.40432 | -90.43617 | 6310 ft | 244 kts | 85° |
| 2026-04-30 01:02 | 14.40886 | -90.41946 | 6237 ft | 238 kts | 63° |
| 2026-04-30 01:02 | 14.41933 | -90.40686 | 6369 ft | 238 kts | 32° |
| 2026-04-30 01:02 | 14.43323 | -90.39719 | 6633 ft | 243 kts | 38° |
| 2026-04-30 01:03 | 14.44693 | -90.38644 | 6874 ft | 245 kts | 34° |
| 2026-04-30 01:03 | 14.46174 | -90.37790 | 7206 ft | 240 kts | 24° |
| 2026-04-30 01:03 | 14.47754 | -90.37257 | 7587 ft | 241 kts | 17° |
| 2026-04-30 01:03 | 14.49385 | -90.36793 | 7965 ft | 243 kts | 12° |
| 2026-04-30 01:04 | 14.51075 | -90.36532 | 8096 ft | 249 kts | 6° |
| 2026-04-30 01:04 | 14.52816 | -90.36414 | 8209 ft | 243 kts | 5° |
| 2026-04-30 01:04 | 14.54486 | -90.36259 | 8242 ft | 243 kts | 8° |
| 2026-04-30 01:04 | 14.56140 | -90.35984 | 8368 ft | 240 kts | 12° |
| 2026-04-30 01:05 | 14.57801 | -90.35623 | 8236 ft | 250 kts | 14° |
| 2026-04-30 01:05 | 14.59503 | -90.35155 | 8121 ft | 242 kts | 16° |
| 2026-04-30 01:05 | 14.61113 | -90.34689 | 7943 ft | 246 kts | 16° |
| 2026-04-30 01:05 | 14.62770 | -90.34214 | 7565 ft | 238 kts | 16° |
| 2026-04-30 01:06 | 14.64338 | -90.33772 | 7511 ft | 232 kts | 11° |
| 2026-04-30 01:06 | 14.65976 | -90.33762 | 7668 ft | 240 kts | 343° |
| 2026-04-30 01:06 | 14.67483 | -90.34593 | 7758 ft | 252 kts | 317° |
| 2026-04-30 01:06 | 14.68582 | -90.36028 | 7385 ft | 257 kts | 296° |
| 2026-04-30 01:07 | 14.69261 | -90.37661 | 7062 ft | 244 kts | 290° |
| 2026-04-30 01:07 | 14.69879 | -90.39246 | 6790 ft | 233 kts | 292° |
| 2026-04-30 01:07 | 14.70529 | -90.40769 | 6410 ft | 229 kts | 292° |
| 2026-04-30 01:07 | 14.70964 | -90.42298 | 6280 ft | 216 kts | 272° |
| 2026-04-30 01:08 | 14.70823 | -90.43798 | 6460 ft | 208 kts | 250° |
| 2026-04-30 01:08 | 14.70054 | -90.44988 | 6799 ft | 205 kts | 214° |
| 2026-04-30 01:08 | 14.68743 | -90.45407 | 6904 ft | 188 kts | 178° |
| 2026-04-30 01:08 | 14.67452 | -90.45399 | 6604 ft | 180 kts | 188° |
| 2026-04-30 01:09 | 14.66311 | -90.45855 | 6357 ft | 181 kts | 219° |
| 2026-04-30 01:09 | 14.65417 | -90.46815 | 6237 ft | 191 kts | 228° |
| 2026-04-30 01:09 | 14.64598 | -90.47946 | 6219 ft | 191 kts | 237° |
| 2026-04-30 01:09 | 14.63963 | -90.49079 | 6267 ft | 175 kts | 241° |
| 2026-04-30 01:10 | 14.63403 | -90.50197 | 5885 ft | 178 kts | 239° |
| 2026-04-30 01:10 | 14.62608 | -90.51139 | 5604 ft | 173 kts | 215° |
| 2026-04-30 01:10 | 14.61554 | -90.51663 | 5405 ft | 165 kts | 201° |
| 2026-04-30 01:10 | 14.60479 | -90.52059 | 5158 ft | 162 kts | 198° |
| 2026-04-30 01:11 | 14.59404 | -90.52407 | 4975 ft | 156 kts | 198° |
| 2026-04-30 01:11 | 14.58433 | -90.52720 | 4905 ft | 143 kts | 198° |
| 2026-04-30 01:11 | 14.57545 | -90.53002 | 4903 ft | 183 kts | 197° |